Station: Ballera  

  Atmospheric Gas Attenuation - ITU Rec 676-11   ----------------- dB/100km -----------------
Date Time Temp RH % AH g/m3 Dew Point Wind Direction Speed kph Gust kph Barometer mB Rainfall Since 9am 24GHz 47GHz 76GHz 122GHz 134GHz 241GHz
01/09 19:30 24.5 31 6.94 6.3 9 13 1019.3 0 15.6 20.9 29.5 77.0 67.9 232.7
01/09 19:20 24.6 32 7.2 6.8 7 9 1019.3 0 16.2 21.3 30.3 79.2 70.6 242.3
01/09 19:10 25.2 28 6.52 5.4 11 17 1019.2 0 14.7 20.2 27.9 72.7 62.8 215.0
01/09 19:00 26 27 6.57 5.6 13 17 1019 0 14.8 20.1 27.8 72.4 62.7 214.8
01/09 18:50 26.2 26 6.4 5.2 13 17 1019 0 14.4 19.9 27.2 70.8 60.8 208.1
01/09 18:40 26.8 25 6.36 5.1 13 17 1018.9 0 14.3 19.7 26.9 70.0 60.0 205.1
01/09 18:30 26.9 24 6.14 4.6 11 15 1018.7 0 13.9 19.4 26.1 68.0 57.6 196.9
01/09 18:20 27.1 23 5.95 4.2 13 15 1018.8 0 13.5 19.1 25.5 66.3 55.6 189.7
01/09 18:10 27.6 23 6.12 4.6 11 15 1018.7 0 13.8 19.2 25.9 67.3 56.9 194.6
01/09 18:00 27.9 22 5.95 4.2 15 20 1018.6 0 13.5 18.9 25.2 65.7 55.0 187.9
01/09 17:50 28.3 21 5.81 3.9 17 22 1018.7 0 13.2 18.7 24.7 64.3 53.4 182.2
01/09 17:40 28.8 20 5.68 3.6 17 22 1018.7 0 12.9 18.4 24.2 62.9 51.8 176.6
01/09 17:30 29.1 21 6.07 4.6 19 28 1018.6 0 13.7 18.8 25.3 65.7 55.4 189.4
01/09 17:20 29.3 20 5.84 4 19 24 1018.7 0 13.2 18.5 24.5 63.8 53.0 181.1
01/09 17:10 29.3 20 5.84 4 19 24 1018.6 0 13.2 18.5 24.5 63.8 53.0 181.0
01/09 17:00 29.8 20 6 4.4 22 28 1018.5 0 13.5 18.6 24.8 64.6 54.3 185.4
01/09 16:50 30.1 18 5.49 3.2 24 35 1018.7 0 12.4 18.0 23.3 60.4 49.2 167.5
01/09 16:40 30.3 19 5.86 4.1 20 26 1018.7 0 13.2 18.4 24.3 63.2 52.6 179.6
01/09 16:30 30.1 20 6.1 4.7 13 26 1018.5 0 13.7 18.7 25.0 65.2 55.1 188.2
01/09 16:20 29.5 20 5.9 4.2 17 26 1018.7 0 13.3 18.6 24.6 64.1 53.5 182.7
01/09 16:10 29.9 20 6.03 4.5 20 26 1018.7 0 13.6 18.6 24.9 64.8 54.5 186.3
01/09 16:00 30.3 19 5.86 4.1 24 33 1018.7 0 13.2 18.4 24.3 63.2 52.6 179.6
01/09 15:50 31 19 6.08 4.7 20 32 1018.8 0 13.6 18.5 24.7 64.4 54.3 185.6
01/09 15:40 30.3 20 6.17 4.9 13 22 1018.8 0 13.8 18.7 25.2 65.6 55.6 190.2
01/09 15:30 29.6 20 5.94 4.3 24 35 1018.8 0 13.4 18.6 24.7 64.3 53.8 183.9
01/09 15:20 30.5 19 5.92 4.3 22 33 1019 0 13.3 18.4 24.4 63.5 53.1 181.3
01/09 15:10 29.4 20 5.87 4.1 19 30 1019.1 0 13.2 18.6 24.6 64.0 53.3 181.9
01/09 15:00 30 20 6.07 4.6 22 33 1019 0 13.6 18.7 25.0 65.1 54.9 187.5
01/09 14:50 30.5 19 5.92 4.3 19 30 1019.2 0 13.3 18.4 24.4 63.5 53.1 181.3
01/09 14:40 30.5 19 5.92 4.3 20 33 1019.3 0 13.3 18.4 24.4 63.5 53.1 181.3
01/09 14:30 30.3 19 5.86 4.1 19 28 1019.4 0 13.2 18.4 24.3 63.2 52.6 179.7
01/09 14:20 30.5 19 5.92 4.3 22 32 1019.6 0 13.3 18.4 24.4 63.6 53.1 181.4
01/09 14:10 30.3 19 5.86 4.1 24 35 1019.8 0 13.2 18.4 24.3 63.3 52.7 179.8
01/09 14:00 30.1 21 6.4 5.4 22 35 1019.8 0 14.3 19.1 26.0 67.7 58.1 198.8
01/09 13:50 30.8 19 6.02 4.5 24 37 1020.1 0 13.5 18.5 24.7 64.2 53.9 184.2
01/09 13:40 29.7 21 6.27 5.1 22 37 1020.3 0 14.1 19.0 25.7 67.0 57.1 195.3
01/09 13:30 30 21 6.37 5.3 26 39 1020.3 0 14.3 19.1 25.9 67.6 57.9 198.1
01/09 13:20 29.5 23 6.79 6.2 24 41 1020.6 0 15.1 19.7 27.4 71.4 62.4 214.1
01/09 13:10 29 23 6.61 5.8 28 39 1020.7 0 14.8 19.6 27.0 70.3 61.0 209.0
01/09 13:00 29.4 23 6.75 6.1 26 37 1020.8 0 15.1 19.7 27.3 71.2 62.1 213.0
01/09 12:50 28.7 23 6.5 5.5 30 41 1021.1 0 14.6 19.5 26.8 69.7 60.1 205.9
01/09 12:40 29.2 23 6.68 6 28 39 1021.2 0 14.9 19.7 27.2 70.8 61.6 211.1
01/09 12:30 28.7 23 6.5 5.5 26 39 1021.4 0 14.6 19.5 26.8 69.7 60.1 205.9
01/09 12:20 28.5 23 6.43 5.4 30 41 1021.7 0 14.4 19.5 26.6 69.4 59.6 204.0
01/09 12:10 28.3 24 6.64 5.8 30 39 1021.9 0 14.9 19.8 27.3 71.3 61.9 212.0
01/09 12:00 28.5 25 6.99 6.6 32 39 1022 0 15.6 20.2 28.4 74.0 65.3 224.1
01/09 11:50 28.6 25 7.03 6.7 30 37 1022.3 0 15.7 20.3 28.5 74.3 65.7 225.4
01/09 11:40 27.9 25 6.76 6.1 32 39 1022.5 0 15.1 20.1 27.9 72.7 63.5 217.5
01/09 11:30 27.5 25 6.61 5.7 32 39 1022.6 0 14.8 20.0 27.5 71.7 62.2 213.1
01/09 11:20 28 25 6.8 6.2 28 37 1022.9 0 15.2 20.1 28.0 72.9 63.8 218.7
01/09 11:10 26.9 26 6.65 5.8 28 37 1023 0 14.9 20.2 27.9 72.6 63.1 216.1
01/09 11:00 26.6 27 6.8 6.1 30 39 1022.9 0 15.3 20.4 28.4 74.2 64.9 222.4
01/09 10:50 27.2 26 6.77 6 28 35 1023.1 0 15.2 20.2 28.1 73.4 64.1 219.8
01/09 10:40 26.2 27 6.65 5.7 28 37 1023.1 0 15.0 20.3 28.1 73.2 63.6 218.0
01/09 10:30 26.3 27 6.68 5.8 30 37 1023 0 15.0 20.3 28.2 73.4 63.9 218.8
01/09 10:20 25.7 28 6.7 5.8 30 35 1023.2 0 15.1 20.5 28.4 74.1 64.6 221.2
01/09 10:10 25.3 30 7.02 6.5 26 35 1023.2 0 15.8 21.0 29.6 77.3 68.3 234.3
01/09 10:00 24.5 30 6.71 5.8 28 37 1023.2 0 15.1 20.8 28.9 75.3 65.6 224.7
01/09 09:50 24.3 30 6.64 5.6 26 35 1023.3 0 15.0 20.7 28.7 74.9 65.0 222.7
01/09 09:40 23.8 32 6.88 6.1 28 37 1023.4 0 15.5 21.1 29.7 77.4 68.1 233.2
01/09 09:30 23.6 32 6.81 6 28 35 1023.4 0 15.4 21.1 29.5 77.0 67.5 231.1
01/09 09:20 23.1 32 6.61 5.5 28 39 1023.3 0 15.0 20.9 29.0 75.7 65.7 224.7
01/09 09:10 22.4 33 6.55 5.4 28 35 1023.4 0 14.9 21.0 29.1 75.8 65.6 224.4
01/09 09:00 22.1 35 6.83 5.9 26 35 1023.5 0 15.5 21.5 30.1 78.6 68.9 236.1
01/09 08:50 21.9 34 6.56 5.3 22 30 1023.4 0 14.9 21.1 29.3 76.4 66.1 226.1
01/09 08:40 21.6 36 6.83 5.9 22 30 1023.4 0 15.5 21.6 30.3 79.1 69.4 237.5
01/09 08:30 20.8 36 6.52 5.2 22 28 1023.4 0 14.9 21.3 29.5 77.0 66.6 227.6
01/09 08:20 20.5 38 6.76 5.7 22 26 1023.1 0 15.4 21.7 30.5 79.5 69.5 237.9
01/09 08:10 19.8 41 7 6.2 20 26 1023 0 15.9 22.2 31.6 82.4 72.9 249.6
01/09 08:00 19.3 42 6.97 6.1 17 20 1023.1 0 15.9 22.3 31.6 82.6 73.0 249.9
01/09 07:50 18.6 44 7 6.1 17 22 1022.9 0 16.0 22.5 32.0 83.6 73.9 253.3
01/09 07:40 17.5 47 7.01 6.1 15 17 1022.8 0 16.0 22.8 32.5 84.8 75.1 257.1
01/09 07:30 17.1 48 6.99 6 17 19 1022.9 0 16.0 22.9 32.6 85.1 75.2 257.6
01/09 07:20 16.9 48 6.9 5.8 19 20 1022.7 0 15.8 22.8 32.3 84.4 74.3 254.4
01/09 07:10 16.1 50 6.85 5.7 19 20 1022.6 0 15.8 22.9 32.4 84.7 74.5 254.8
01/09 07:00 15.4 52 6.83 5.6 19 20 1022.6 0 15.8 23.0 32.7 85.3 74.9 256.1
01/09 06:50 15.5 52 6.87 5.7 19 20 1022.5 0 15.8 23.1 32.8 85.5 75.3 257.5
01/09 06:40 15.5 51 6.74 5.4 19 20 1022.4 0 15.6 22.9 32.3 84.2 73.7 251.9
01/09 06:30 15.9 50 6.77 5.5 17 20 1022.5 0 15.6 22.8 32.2 84.1 73.7 252.0
01/09 06:20 16.1 49 6.72 5.4 17 19 1022.3 0 15.5 22.7 32.0 83.4 72.9 249.2
01/09 06:10 16.8 47 6.72 5.4 19 22 1022.2 0 15.5 22.5 31.7 82.7 72.2 247.0
01/09 06:00 17.1 46 6.7 5.4 19 26 1022.2 0 15.4 22.4 31.5 82.2 71.7 245.3
01/09 05:50 17.2 46 6.74 5.5 19 26 1022.1 0 15.5 22.5 31.6 82.5 72.1 246.6
01/09 05:40 17.4 46 6.82 5.7 20 24 1022.1 0 15.7 22.5 31.8 83.0 72.9 249.4
01/09 05:30 16.8 48 6.86 5.7 19 22 1022.1 0 15.8 22.7 32.2 84.0 73.9 252.9
01/09 05:20 16.6 48 6.78 5.6 19 22 1021.9 0 15.6 22.7 32.0 83.5 73.1 250.1
01/09 05:10 16.5 49 6.88 5.8 19 22 1021.8 0 15.8 22.8 32.4 84.5 74.4 254.6
01/09 05:00 16.6 49 6.92 5.9 19 22 1021.9 0 15.9 22.9 32.5 84.8 74.8 256.0
01/09 04:50 15.9 52 7.04 6.1 17 20 1021.7 0 16.2 23.2 33.2 86.7 76.9 263.3
01/09 04:40 15.6 54 7.18 6.3 15 19 1021.7 0 16.5 23.5 33.8 88.4 78.9 270.3
01/09 04:30 15.6 53 7.05 6.1 17 17 1021.8 0 16.2 23.3 33.4 87.1 77.3 264.7
01/09 04:20 15.4 54 7.09 6.2 17 19 1021.7 0 16.3 23.4 33.6 87.8 78.0 267.1
01/09 04:10 14.8 56 7.09 6.1 17 17 1021.7 0 16.3 23.6 33.8 88.4 78.6 269.1
01/09 04:00 15.3 55 7.18 6.3 11 13 1021.9 0 16.5 23.6 34.0 88.8 79.2 271.4
01/09 03:50 15.1 56 7.22 6.4 11 13 1021.9 0 16.6 23.7 34.2 89.4 79.9 273.8
01/09 03:40 14.6 57 7.13 6.2 13 17 1021.9 0 16.4 23.7 34.1 89.1 79.3 271.6
01/09 03:30 14.9 56 7.14 6.2 9 13 1022.1 0 16.4 23.6 34.0 88.8 79.1 271.0
01/09 03:20 14.6 56 7.01 5.9 9 9 1022 0 16.2 23.5 33.6 87.9 77.8 266.4
01/09 03:10 15.5 54 7.14 6.2 11 13 1022.1 0 16.4 23.5 33.7 88.2 78.5 269.0
01/09 03:00 15.3 54 7.05 6.1 13 17 1022.3 0 16.2 23.4 33.5 87.5 77.6 265.8

Last Refresh: 01-Sep-2026 19:15:28

Bureau of Meteorology